sensor_id;sensor_type;location;lat;lon;timestamp;temperature;humidity
12408;DHT22;6268;48.188;17.134;2023-04-24T00:00:57;16.10;99.90
12408;DHT22;6268;48.188;17.134;2023-04-24T00:03:28;16.20;99.90
12408;DHT22;6268;48.188;17.134;2023-04-24T00:05:58;16.10;99.90
12408;DHT22;6268;48.188;17.134;2023-04-24T00:08:27;16.10;99.90
12408;DHT22;6268;48.188;17.134;2023-04-24T00:10:56;16.10;99.90
12408;DHT22;6268;48.188;17.134;2023-04-24T00:13:25;16.00;99.90
12408;DHT22;6268;48.188;17.134;2023-04-24T00:15:55;15.90;99.90
12408;DHT22;6268;48.188;17.134;2023-04-24T00:18:24;15.90;99.90
12408;DHT22;6268;48.188;17.134;2023-04-24T00:20:52;15.90;99.90
12408;DHT22;6268;48.188;17.134;2023-04-24T00:23:23;15.80;99.90
12408;DHT22;6268;48.188;17.134;2023-04-24T00:25:51;15.80;99.90
12408;DHT22;6268;48.188;17.134;2023-04-24T00:28:20;15.80;99.90
12408;DHT22;6268;48.188;17.134;2023-04-24T00:30:49;15.70;99.90
12408;DHT22;6268;48.188;17.134;2023-04-24T00:33:17;15.80;99.90
12408;DHT22;6268;48.188;17.134;2023-04-24T00:35:46;15.70;99.90
12408;DHT22;6268;48.188;17.134;2023-04-24T00:38:15;15.70;99.90
12408;DHT22;6268;48.188;17.134;2023-04-24T00:40:45;15.70;99.90
12408;DHT22;6268;48.188;17.134;2023-04-24T00:43:14;15.70;99.90
12408;DHT22;6268;48.188;17.134;2023-04-24T00:45:43;15.70;99.90
12408;DHT22;6268;48.188;17.134;2023-04-24T00:48:12;15.60;99.90
12408;DHT22;6268;48.188;17.134;2023-04-24T00:50:42;15.70;99.90
12408;DHT22;6268;48.188;17.134;2023-04-24T00:53:11;15.70;99.90
12408;DHT22;6268;48.188;17.134;2023-04-24T00:55:40;15.70;99.90
12408;DHT22;6268;48.188;17.134;2023-04-24T00:58:10;15.60;99.90
12408;DHT22;6268;48.188;17.134;2023-04-24T01:00:39;15.60;99.90
12408;DHT22;6268;48.188;17.134;2023-04-24T01:03:08;15.50;99.90
12408;DHT22;6268;48.188;17.134;2023-04-24T01:05:38;15.40;99.90
12408;DHT22;6268;48.188;17.134;2023-04-24T01:08:07;15.30;99.90
12408;DHT22;6268;48.188;17.134;2023-04-24T01:10:36;15.20;99.90
12408;DHT22;6268;48.188;17.134;2023-04-24T01:13:09;15.30;99.90
12408;DHT22;6268;48.188;17.134;2023-04-24T01:15:38;15.30;99.90
12408;DHT22;6268;48.188;17.134;2023-04-24T01:18:07;15.30;99.90
12408;DHT22;6268;48.188;17.134;2023-04-24T01:20:37;15.30;99.90
12408;DHT22;6268;48.188;17.134;2023-04-24T01:23:09;15.30;99.90
12408;DHT22;6268;48.188;17.134;2023-04-24T01:25:38;15.30;99.90
12408;DHT22;6268;48.188;17.134;2023-04-24T01:28:07;15.20;99.90
12408;DHT22;6268;48.188;17.134;2023-04-24T01:30:37;15.20;99.90
12408;DHT22;6268;48.188;17.134;2023-04-24T01:33:06;15.20;99.90
12408;DHT22;6268;48.188;17.134;2023-04-24T01:35:35;15.20;99.90
12408;DHT22;6268;48.188;17.134;2023-04-24T01:38:04;15.20;99.90
12408;DHT22;6268;48.188;17.134;2023-04-24T01:40:35;15.20;99.90
12408;DHT22;6268;48.188;17.134;2023-04-24T01:43:03;15.10;99.90
12408;DHT22;6268;48.188;17.134;2023-04-24T01:45:32;15.20;99.90
12408;DHT22;6268;48.188;17.134;2023-04-24T01:48:01;15.10;99.90
12408;DHT22;6268;48.188;17.134;2023-04-24T01:50:31;15.10;99.90
12408;DHT22;6268;48.188;17.134;2023-04-24T01:53:00;15.30;99.90
12408;DHT22;6268;48.188;17.134;2023-04-24T01:55:29;15.20;99.90
12408;DHT22;6268;48.188;17.134;2023-04-24T01:57:59;15.20;99.90
12408;DHT22;6268;48.188;17.134;2023-04-24T02:00:29;15.10;99.90
12408;DHT22;6268;48.188;17.134;2023-04-24T02:02:58;15.10;99.90
12408;DHT22;6268;48.188;17.134;2023-04-24T02:05:29;15.10;99.90
12408;DHT22;6268;48.188;17.134;2023-04-24T02:07:57;15.10;99.90
12408;DHT22;6268;48.188;17.134;2023-04-24T02:10:26;15.00;99.90
12408;DHT22;6268;48.188;17.134;2023-04-24T02:12:55;14.90;99.90
12408;DHT22;6268;48.188;17.134;2023-04-24T02:15:25;15.00;99.90
12408;DHT22;6268;48.188;17.134;2023-04-24T02:18:03;15.00;99.90
12408;DHT22;6268;48.188;17.134;2023-04-24T02:20:33;15.10;99.90
12408;DHT22;6268;48.188;17.134;2023-04-24T02:23:02;15.00;99.90
12408;DHT22;6268;48.188;17.134;2023-04-24T02:25:31;15.00;99.90
12408;DHT22;6268;48.188;17.134;2023-04-24T02:27:59;15.00;99.90
12408;DHT22;6268;48.188;17.134;2023-04-24T02:30:31;14.90;99.90
12408;DHT22;6268;48.188;17.134;2023-04-24T02:33:03;14.90;99.90
12408;DHT22;6268;48.188;17.134;2023-04-24T02:35:37;14.80;99.90
12408;DHT22;6268;48.188;17.134;2023-04-24T02:38:06;14.90;99.90
12408;DHT22;6268;48.188;17.134;2023-04-24T02:40:38;14.90;99.90
12408;DHT22;6268;48.188;17.134;2023-04-24T02:43:09;14.90;99.90
12408;DHT22;6268;48.188;17.134;2023-04-24T02:45:39;14.80;99.90
12408;DHT22;6268;48.188;17.134;2023-04-24T02:48:08;14.80;99.90
12408;DHT22;6268;48.188;17.134;2023-04-24T02:50:37;14.80;99.90
12408;DHT22;6268;48.188;17.134;2023-04-24T02:53:06;14.70;99.90
12408;DHT22;6268;48.188;17.134;2023-04-24T02:55:35;14.80;99.90
12408;DHT22;6268;48.188;17.134;2023-04-24T02:58:04;14.70;99.90
12408;DHT22;6268;48.188;17.134;2023-04-24T03:00:33;14.60;99.90
12408;DHT22;6268;48.188;17.134;2023-04-24T03:03:03;14.60;99.90
12408;DHT22;6268;48.188;17.134;2023-04-24T03:05:33;14.50;99.90
12408;DHT22;6268;48.188;17.134;2023-04-24T03:08:01;14.60;99.90
12408;DHT22;6268;48.188;17.134;2023-04-24T03:10:30;14.60;99.90
12408;DHT22;6268;48.188;17.134;2023-04-24T03:12:59;14.60;99.90
12408;DHT22;6268;48.188;17.134;2023-04-24T03:15:28;14.50;99.90
12408;DHT22;6268;48.188;17.134;2023-04-24T03:17:57;14.60;99.90
12408;DHT22;6268;48.188;17.134;2023-04-24T03:20:27;14.70;99.90
12408;DHT22;6268;48.188;17.134;2023-04-24T03:22:56;14.80;99.90
12408;DHT22;6268;48.188;17.134;2023-04-24T03:25:24;14.80;99.90
12408;DHT22;6268;48.188;17.134;2023-04-24T03:27:53;14.80;99.90
12408;DHT22;6268;48.188;17.134;2023-04-24T03:30:22;14.90;99.90
12408;DHT22;6268;48.188;17.134;2023-04-24T03:32:51;14.90;99.90
12408;DHT22;6268;48.188;17.134;2023-04-24T03:35:20;14.90;99.90
12408;DHT22;6268;48.188;17.134;2023-04-24T03:37:50;14.90;99.90
12408;DHT22;6268;48.188;17.134;2023-04-24T03:40:19;14.90;99.90
12408;DHT22;6268;48.188;17.134;2023-04-24T03:42:48;14.80;99.90
12408;DHT22;6268;48.188;17.134;2023-04-24T03:45:17;14.80;99.90
12408;DHT22;6268;48.188;17.134;2023-04-24T03:47:45;14.70;99.90
12408;DHT22;6268;48.188;17.134;2023-04-24T03:50:15;14.80;99.90
12408;DHT22;6268;48.188;17.134;2023-04-24T03:52:44;14.80;99.90
12408;DHT22;6268;48.188;17.134;2023-04-24T03:55:14;14.90;99.90
12408;DHT22;6268;48.188;17.134;2023-04-24T03:57:43;14.90;99.90
12408;DHT22;6268;48.188;17.134;2023-04-24T04:00:12;15.00;99.90
12408;DHT22;6268;48.188;17.134;2023-04-24T04:02:42;14.90;99.90
12408;DHT22;6268;48.188;17.134;2023-04-24T04:05:10;14.90;99.90
12408;DHT22;6268;48.188;17.134;2023-04-24T04:07:39;14.90;99.90
12408;DHT22;6268;48.188;17.134;2023-04-24T04:10:08;14.90;99.90
12408;DHT22;6268;48.188;17.134;2023-04-24T04:12:38;14.80;99.90
12408;DHT22;6268;48.188;17.134;2023-04-24T04:15:07;14.80;99.90
12408;DHT22;6268;48.188;17.134;2023-04-24T04:17:36;14.80;99.90
12408;DHT22;6268;48.188;17.134;2023-04-24T04:20:07;14.80;99.90
12408;DHT22;6268;48.188;17.134;2023-04-24T04:22:37;14.80;99.90
12408;DHT22;6268;48.188;17.134;2023-04-24T04:25:09;14.80;99.90
12408;DHT22;6268;48.188;17.134;2023-04-24T04:27:42;14.70;99.90
12408;DHT22;6268;48.188;17.134;2023-04-24T04:30:10;14.90;99.90
12408;DHT22;6268;48.188;17.134;2023-04-24T04:32:39;14.80;99.90
12408;DHT22;6268;48.188;17.134;2023-04-24T04:35:08;14.90;99.90
12408;DHT22;6268;48.188;17.134;2023-04-24T04:37:37;14.90;99.90
12408;DHT22;6268;48.188;17.134;2023-04-24T04:40:08;15.00;99.90
12408;DHT22;6268;48.188;17.134;2023-04-24T04:42:38;15.00;99.90
12408;DHT22;6268;48.188;17.134;2023-04-24T04:45:10;15.10;99.90
12408;DHT22;6268;48.188;17.134;2023-04-24T04:47:39;15.20;99.90
12408;DHT22;6268;48.188;17.134;2023-04-24T04:50:08;15.30;99.90
12408;DHT22;6268;48.188;17.134;2023-04-24T04:52:38;15.30;99.90
12408;DHT22;6268;48.188;17.134;2023-04-24T04:55:07;15.40;99.90
12408;DHT22;6268;48.188;17.134;2023-04-24T04:57:37;15.60;99.90
12408;DHT22;6268;48.188;17.134;2023-04-24T05:00:08;15.80;99.90
12408;DHT22;6268;48.188;17.134;2023-04-24T05:02:39;15.80;99.90
12408;DHT22;6268;48.188;17.134;2023-04-24T05:05:08;16.20;99.90
12408;DHT22;6268;48.188;17.134;2023-04-24T05:07:37;16.40;99.90
12408;DHT22;6268;48.188;17.134;2023-04-24T05:10:07;16.30;99.90
12408;DHT22;6268;48.188;17.134;2023-04-24T05:12:36;16.40;99.90
12408;DHT22;6268;48.188;17.134;2023-04-24T05:15:07;16.60;99.90
12408;DHT22;6268;48.188;17.134;2023-04-24T05:17:36;16.70;99.90
12408;DHT22;6268;48.188;17.134;2023-04-24T05:20:07;16.80;99.90
12408;DHT22;6268;48.188;17.134;2023-04-24T05:22:36;17.20;99.90
12408;DHT22;6268;48.188;17.134;2023-04-24T05:25:06;17.80;99.90
12408;DHT22;6268;48.188;17.134;2023-04-24T05:27:35;17.80;99.90
12408;DHT22;6268;48.188;17.134;2023-04-24T05:30:07;17.90;99.90
12408;DHT22;6268;48.188;17.134;2023-04-24T05:32:36;17.60;99.90
12408;DHT22;6268;48.188;17.134;2023-04-24T05:35:05;17.60;99.90
12408;DHT22;6268;48.188;17.134;2023-04-24T05:37:35;17.80;99.90
12408;DHT22;6268;48.188;17.134;2023-04-24T05:40:04;17.90;99.90
12408;DHT22;6268;48.188;17.134;2023-04-24T05:42:34;17.90;99.90
12408;DHT22;6268;48.188;17.134;2023-04-24T05:45:03;17.80;99.90
12408;DHT22;6268;48.188;17.134;2023-04-24T05:47:33;17.70;99.90
12408;DHT22;6268;48.188;17.134;2023-04-24T05:50:03;17.40;99.90
12408;DHT22;6268;48.188;17.134;2023-04-24T05:52:32;17.30;99.90
12408;DHT22;6268;48.188;17.134;2023-04-24T05:55:01;17.20;99.90
12408;DHT22;6268;48.188;17.134;2023-04-24T05:57:29;16.70;99.90
12408;DHT22;6268;48.188;17.134;2023-04-24T05:59:58;16.70;99.90
12408;DHT22;6268;48.188;17.134;2023-04-24T06:02:27;16.40;99.90
12408;DHT22;6268;48.188;17.134;2023-04-24T06:05:01;16.50;99.90
12408;DHT22;6268;48.188;17.134;2023-04-24T06:07:30;16.50;99.90
12408;DHT22;6268;48.188;17.134;2023-04-24T06:09:59;16.60;99.90
12408;DHT22;6268;48.188;17.134;2023-04-24T06:12:27;16.80;99.90
12408;DHT22;6268;48.188;17.134;2023-04-24T06:14:56;16.70;99.90
12408;DHT22;6268;48.188;17.134;2023-04-24T06:17:25;16.50;99.90
12408;DHT22;6268;48.188;17.134;2023-04-24T06:19:54;16.60;99.90
12408;DHT22;6268;48.188;17.134;2023-04-24T06:22:24;16.90;99.90
12408;DHT22;6268;48.188;17.134;2023-04-24T06:24:52;17.20;99.90
12408;DHT22;6268;48.188;17.134;2023-04-24T06:27:21;17.40;99.90
12408;DHT22;6268;48.188;17.134;2023-04-24T06:29:50;17.30;99.90
12408;DHT22;6268;48.188;17.134;2023-04-24T06:32:22;17.40;99.90
12408;DHT22;6268;48.188;17.134;2023-04-24T06:34:51;17.80;99.90
12408;DHT22;6268;48.188;17.134;2023-04-24T06:37:20;17.90;99.90
12408;DHT22;6268;48.188;17.134;2023-04-24T06:39:50;18.00;99.90
12408;DHT22;6268;48.188;17.134;2023-04-24T06:42:19;18.20;99.90
12408;DHT22;6268;48.188;17.134;2023-04-24T06:44:49;18.00;99.90
12408;DHT22;6268;48.188;17.134;2023-04-24T06:47:17;18.80;99.90
12408;DHT22;6268;48.188;17.134;2023-04-24T06:49:46;19.00;99.90
12408;DHT22;6268;48.188;17.134;2023-04-24T06:52:15;19.40;99.90
12408;DHT22;6268;48.188;17.134;2023-04-24T06:54:43;20.10;99.90
12408;DHT22;6268;48.188;17.134;2023-04-24T06:57:14;20.30;99.90
12408;DHT22;6268;48.188;17.134;2023-04-24T06:59:43;20.10;99.90
12408;DHT22;6268;48.188;17.134;2023-04-24T07:02:12;20.00;99.90
12408;DHT22;6268;48.188;17.134;2023-04-24T07:04:40;20.20;99.90
12408;DHT22;6268;48.188;17.134;2023-04-24T07:07:11;20.20;99.90
12408;DHT22;6268;48.188;17.134;2023-04-24T07:09:41;20.10;99.90
12408;DHT22;6268;48.188;17.134;2023-04-24T07:12:11;20.60;99.90
12408;DHT22;6268;48.188;17.134;2023-04-24T07:14:41;21.00;99.90
12408;DHT22;6268;48.188;17.134;2023-04-24T07:17:10;21.30;99.90
12408;DHT22;6268;48.188;17.134;2023-04-24T07:19:40;21.70;99.90
12408;DHT22;6268;48.188;17.134;2023-04-24T07:22:09;21.70;99.30
12408;DHT22;6268;48.188;17.134;2023-04-24T07:24:43;21.80;98.80
12408;DHT22;6268;48.188;17.134;2023-04-24T07:27:12;21.70;98.40
12408;DHT22;6268;48.188;17.134;2023-04-24T07:29:43;21.90;97.70
12408;DHT22;6268;48.188;17.134;2023-04-24T07:32:12;22.20;96.50
12408;DHT22;6268;48.188;17.134;2023-04-24T07:34:41;22.30;96.30
12408;DHT22;6268;48.188;17.134;2023-04-24T07:37:10;22.70;95.40
12408;DHT22;6268;48.188;17.134;2023-04-24T07:39:39;22.70;94.40
12408;DHT22;6268;48.188;17.134;2023-04-24T07:42:08;22.70;95.30
12408;DHT22;6268;48.188;17.134;2023-04-24T07:44:36;22.20;96.30
12408;DHT22;6268;48.188;17.134;2023-04-24T07:47:06;22.20;96.50
12408;DHT22;6268;48.188;17.134;2023-04-24T07:49:36;21.90;97.20
12408;DHT22;6268;48.188;17.134;2023-04-24T07:52:05;21.70;97.90
12408;DHT22;6268;48.188;17.134;2023-04-24T07:54:33;21.40;98.80
12408;DHT22;6268;48.188;17.134;2023-04-24T07:57:02;21.20;99.90
12408;DHT22;6268;48.188;17.134;2023-04-24T07:59:33;20.70;99.90
12408;DHT22;6268;48.188;17.134;2023-04-24T08:02:02;20.60;99.90
12408;DHT22;6268;48.188;17.134;2023-04-24T08:04:33;20.20;99.90
12408;DHT22;6268;48.188;17.134;2023-04-24T08:07:02;19.90;99.90
12408;DHT22;6268;48.188;17.134;2023-04-24T08:09:31;19.80;99.90
12408;DHT22;6268;48.188;17.134;2023-04-24T08:11:59;19.60;99.90
12408;DHT22;6268;48.188;17.134;2023-04-24T08:14:29;19.80;99.90
12408;DHT22;6268;48.188;17.134;2023-04-24T08:17:01;19.60;99.90
12408;DHT22;6268;48.188;17.134;2023-04-24T08:19:30;19.40;99.90
12408;DHT22;6268;48.188;17.134;2023-04-24T08:22:01;19.50;99.90
12408;DHT22;6268;48.188;17.134;2023-04-24T08:24:31;19.70;99.90
12408;DHT22;6268;48.188;17.134;2023-04-24T08:26:59;20.00;99.90
12408;DHT22;6268;48.188;17.134;2023-04-24T08:29:28;20.00;99.90
12408;DHT22;6268;48.188;17.134;2023-04-24T08:31:57;20.10;99.90
12408;DHT22;6268;48.188;17.134;2023-04-24T08:34:26;20.40;99.90
12408;DHT22;6268;48.188;17.134;2023-04-24T08:36:56;20.30;99.90
12408;DHT22;6268;48.188;17.134;2023-04-24T08:39:24;20.70;99.90
12408;DHT22;6268;48.188;17.134;2023-04-24T08:41:54;20.90;99.90
12408;DHT22;6268;48.188;17.134;2023-04-24T08:44:23;21.30;99.90
12408;DHT22;6268;48.188;17.134;2023-04-24T08:46:53;20.90;99.90
12408;DHT22;6268;48.188;17.134;2023-04-24T08:49:24;20.60;99.90
12408;DHT22;6268;48.188;17.134;2023-04-24T08:51:56;20.50;99.90
12408;DHT22;6268;48.188;17.134;2023-04-24T08:54:26;20.40;99.90
12408;DHT22;6268;48.188;17.134;2023-04-24T08:56:59;20.40;99.90
12408;DHT22;6268;48.188;17.134;2023-04-24T08:59:31;20.00;99.90
12408;DHT22;6268;48.188;17.134;2023-04-24T09:02:00;19.80;99.90
12408;DHT22;6268;48.188;17.134;2023-04-24T09:04:30;19.70;99.90
12408;DHT22;6268;48.188;17.134;2023-04-24T09:07:02;19.60;99.90
12408;DHT22;6268;48.188;17.134;2023-04-24T09:09:32;19.40;99.90
12408;DHT22;6268;48.188;17.134;2023-04-24T09:12:03;19.40;99.90
12408;DHT22;6268;48.188;17.134;2023-04-24T09:14:33;19.20;99.90
12408;DHT22;6268;48.188;17.134;2023-04-24T09:17:03;19.00;99.90
12408;DHT22;6268;48.188;17.134;2023-04-24T09:19:32;18.80;99.90
12408;DHT22;6268;48.188;17.134;2023-04-24T09:22:04;18.90;99.90
12408;DHT22;6268;48.188;17.134;2023-04-24T09:24:34;18.70;99.90
12408;DHT22;6268;48.188;17.134;2023-04-24T09:27:04;18.50;99.90
12408;DHT22;6268;48.188;17.134;2023-04-24T09:29:32;18.60;99.90
12408;DHT22;6268;48.188;17.134;2023-04-24T09:32:18;18.60;99.90
12408;DHT22;6268;48.188;17.134;2023-04-24T09:34:49;18.40;99.90
12408;DHT22;6268;48.188;17.134;2023-04-24T09:37:29;18.40;99.90
12408;DHT22;6268;48.188;17.134;2023-04-24T09:40:12;18.40;99.90
12408;DHT22;6268;48.188;17.134;2023-04-24T09:42:51;18.20;99.90
12408;DHT22;6268;48.188;17.134;2023-04-24T09:45:21;18.10;99.90
12408;DHT22;6268;48.188;17.134;2023-04-24T09:47:52;18.20;99.90
12408;DHT22;6268;48.188;17.134;2023-04-24T09:50:21;18.10;99.90
12408;DHT22;6268;48.188;17.134;2023-04-24T09:52:58;18.10;99.90
12408;DHT22;6268;48.188;17.134;2023-04-24T09:55:31;18.20;99.90
12408;DHT22;6268;48.188;17.134;2023-04-24T09:58:01;18.10;99.90
12408;DHT22;6268;48.188;17.134;2023-04-24T10:00:32;17.90;99.90
12408;DHT22;6268;48.188;17.134;2023-04-24T10:03:03;17.70;99.90
12408;DHT22;6268;48.188;17.134;2023-04-24T10:05:35;17.60;99.90
12408;DHT22;6268;48.188;17.134;2023-04-24T10:08:07;17.60;99.90
12408;DHT22;6268;48.188;17.134;2023-04-24T10:10:40;17.50;99.90
12408;DHT22;6268;48.188;17.134;2023-04-24T10:13:10;17.40;99.90
12408;DHT22;6268;48.188;17.134;2023-04-24T10:15:41;17.60;99.90
12408;DHT22;6268;48.188;17.134;2023-04-24T10:18:11;17.50;99.90
12408;DHT22;6268;48.188;17.134;2023-04-24T10:20:40;17.40;99.90
12408;DHT22;6268;48.188;17.134;2023-04-24T10:23:11;17.40;99.90
12408;DHT22;6268;48.188;17.134;2023-04-24T10:25:40;17.20;99.90
12408;DHT22;6268;48.188;17.134;2023-04-24T10:28:10;16.80;99.90
12408;DHT22;6268;48.188;17.134;2023-04-24T10:30:43;16.70;99.90
12408;DHT22;6268;48.188;17.134;2023-04-24T10:33:12;16.70;99.90
12408;DHT22;6268;48.188;17.134;2023-04-24T10:35:45;16.70;99.90
12408;DHT22;6268;48.188;17.134;2023-04-24T10:38:22;16.60;99.90
12408;DHT22;6268;48.188;17.134;2023-04-24T10:40:58;16.50;99.90
12408;DHT22;6268;48.188;17.134;2023-04-24T10:43:36;16.30;99.90
12408;DHT22;6268;48.188;17.134;2023-04-24T10:46:05;16.30;99.90
12408;DHT22;6268;48.188;17.134;2023-04-24T10:48:35;16.20;99.90
12408;DHT22;6268;48.188;17.134;2023-04-24T10:51:04;16.20;99.90
12408;DHT22;6268;48.188;17.134;2023-04-24T10:53:35;16.00;99.90
12408;DHT22;6268;48.188;17.134;2023-04-24T10:56:05;16.20;99.90
12408;DHT22;6268;48.188;17.134;2023-04-24T10:58:39;16.30;99.90
12408;DHT22;6268;48.188;17.134;2023-04-24T11:01:24;16.40;99.90
12408;DHT22;6268;48.188;17.134;2023-04-24T11:03:56;16.30;99.90
12408;DHT22;6268;48.188;17.134;2023-04-24T11:06:30;16.30;99.90
12408;DHT22;6268;48.188;17.134;2023-04-24T11:09:04;16.20;99.90
12408;DHT22;6268;48.188;17.134;2023-04-24T11:11:35;16.50;99.90
12408;DHT22;6268;48.188;17.134;2023-04-24T11:14:07;16.60;99.90
12408;DHT22;6268;48.188;17.134;2023-04-24T11:16:42;16.60;99.90
12408;DHT22;6268;48.188;17.134;2023-04-24T11:19:22;16.40;99.90
12408;DHT22;6268;48.188;17.134;2023-04-24T11:21:57;16.50;99.90
12408;DHT22;6268;48.188;17.134;2023-04-24T11:24:32;16.50;99.90
12408;DHT22;6268;48.188;17.134;2023-04-24T11:27:12;16.50;99.90
12408;DHT22;6268;48.188;17.134;2023-04-24T11:29:45;16.40;99.90
12408;DHT22;6268;48.188;17.134;2023-04-24T11:32:26;16.40;99.90
12408;DHT22;6268;48.188;17.134;2023-04-24T11:34:58;16.10;99.90
12408;DHT22;6268;48.188;17.134;2023-04-24T11:37:30;16.10;99.90
12408;DHT22;6268;48.188;17.134;2023-04-24T11:40:05;16.20;99.90
12408;DHT22;6268;48.188;17.134;2023-04-24T11:42:36;16.20;99.90
12408;DHT22;6268;48.188;17.134;2023-04-24T11:45:08;16.20;99.90
12408;DHT22;6268;48.188;17.134;2023-04-24T11:47:38;16.30;99.90
12408;DHT22;6268;48.188;17.134;2023-04-24T11:50:09;16.20;99.90
12408;DHT22;6268;48.188;17.134;2023-04-24T11:52:40;16.20;99.90
12408;DHT22;6268;48.188;17.134;2023-04-24T11:55:25;16.20;99.90
12408;DHT22;6268;48.188;17.134;2023-04-24T11:57:56;16.20;99.90
12408;DHT22;6268;48.188;17.134;2023-04-24T12:00:28;16.00;99.90
12408;DHT22;6268;48.188;17.134;2023-04-24T12:03:05;16.20;99.90
12408;DHT22;6268;48.188;17.134;2023-04-24T12:05:36;16.40;99.90
12408;DHT22;6268;48.188;17.134;2023-04-24T12:08:06;16.50;99.90
12408;DHT22;6268;48.188;17.134;2023-04-24T12:10:36;16.70;99.90
12408;DHT22;6268;48.188;17.134;2023-04-24T12:13:05;16.70;99.90
12408;DHT22;6268;48.188;17.134;2023-04-24T12:15:39;16.70;99.90
12408;DHT22;6268;48.188;17.134;2023-04-24T12:18:11;16.60;99.90
12408;DHT22;6268;48.188;17.134;2023-04-24T12:20:40;16.50;99.90
12408;DHT22;6268;48.188;17.134;2023-04-24T12:23:09;16.50;99.90
12408;DHT22;6268;48.188;17.134;2023-04-24T12:25:40;16.50;99.90
12408;DHT22;6268;48.188;17.134;2023-04-24T12:28:10;16.30;99.90
12408;DHT22;6268;48.188;17.134;2023-04-24T12:30:41;16.40;99.90
12408;DHT22;6268;48.188;17.134;2023-04-24T12:33:11;16.50;99.90
12408;DHT22;6268;48.188;17.134;2023-04-24T12:35:41;16.60;99.90
12408;DHT22;6268;48.188;17.134;2023-04-24T12:38:11;16.60;99.90
12408;DHT22;6268;48.188;17.134;2023-04-24T12:40:42;16.70;99.90
12408;DHT22;6268;48.188;17.134;2023-04-24T12:43:15;16.70;99.90
12408;DHT22;6268;48.188;17.134;2023-04-24T12:45:45;16.70;99.90
12408;DHT22;6268;48.188;17.134;2023-04-24T12:48:14;16.70;99.90
12408;DHT22;6268;48.188;17.134;2023-04-24T12:50:43;16.60;99.90
12408;DHT22;6268;48.188;17.134;2023-04-24T12:53:14;16.70;99.90
12408;DHT22;6268;48.188;17.134;2023-04-24T12:55:45;16.80;99.90
12408;DHT22;6268;48.188;17.134;2023-04-24T12:58:19;16.70;99.90
12408;DHT22;6268;48.188;17.134;2023-04-24T13:00:48;16.60;99.90
12408;DHT22;6268;48.188;17.134;2023-04-24T13:03:18;16.50;99.90
12408;DHT22;6268;48.188;17.134;2023-04-24T13:05:47;16.50;99.90
12408;DHT22;6268;48.188;17.134;2023-04-24T13:08:16;16.40;99.90
12408;DHT22;6268;48.188;17.134;2023-04-24T13:10:46;16.40;99.90
12408;DHT22;6268;48.188;17.134;2023-04-24T13:13:15;16.40;99.90
12408;DHT22;6268;48.188;17.134;2023-04-24T13:15:44;16.30;99.90
12408;DHT22;6268;48.188;17.134;2023-04-24T13:18:13;16.30;99.90
12408;DHT22;6268;48.188;17.134;2023-04-24T13:20:42;16.30;99.90
12408;DHT22;6268;48.188;17.134;2023-04-24T13:23:11;16.20;99.90
12408;DHT22;6268;48.188;17.134;2023-04-24T13:25:40;16.20;99.90
12408;DHT22;6268;48.188;17.134;2023-04-24T13:28:11;16.10;99.90
12408;DHT22;6268;48.188;17.134;2023-04-24T13:30:39;16.00;99.90
12408;DHT22;6268;48.188;17.134;2023-04-24T13:33:08;15.90;99.90
12408;DHT22;6268;48.188;17.134;2023-04-24T13:35:37;15.90;99.90
12408;DHT22;6268;48.188;17.134;2023-04-24T13:38:06;15.90;99.90
12408;DHT22;6268;48.188;17.134;2023-04-24T13:40:38;15.90;99.90
12408;DHT22;6268;48.188;17.134;2023-04-24T13:43:07;15.90;99.90
12408;DHT22;6268;48.188;17.134;2023-04-24T13:45:37;15.90;99.90
12408;DHT22;6268;48.188;17.134;2023-04-24T13:48:06;15.90;99.90
12408;DHT22;6268;48.188;17.134;2023-04-24T13:50:36;15.60;99.90
12408;DHT22;6268;48.188;17.134;2023-04-24T13:53:05;15.50;99.90
12408;DHT22;6268;48.188;17.134;2023-04-24T13:55:34;15.60;99.90
12408;DHT22;6268;48.188;17.134;2023-04-24T13:58:03;15.70;99.90
12408;DHT22;6268;48.188;17.134;2023-04-24T14:00:32;15.70;99.90
12408;DHT22;6268;48.188;17.134;2023-04-24T14:03:02;15.80;99.90
12408;DHT22;6268;48.188;17.134;2023-04-24T14:05:32;15.80;99.90
12408;DHT22;6268;48.188;17.134;2023-04-24T14:08:03;15.90;99.90
12408;DHT22;6268;48.188;17.134;2023-04-24T14:10:32;16.00;99.90
12408;DHT22;6268;48.188;17.134;2023-04-24T14:13:01;15.90;99.90
12408;DHT22;6268;48.188;17.134;2023-04-24T14:15:30;15.90;99.90
12408;DHT22;6268;48.188;17.134;2023-04-24T14:17:59;16.00;99.90
12408;DHT22;6268;48.188;17.134;2023-04-24T14:20:31;16.00;99.90
12408;DHT22;6268;48.188;17.134;2023-04-24T14:23:00;16.10;99.90
12408;DHT22;6268;48.188;17.134;2023-04-24T14:25:29;16.10;99.90
12408;DHT22;6268;48.188;17.134;2023-04-24T14:27:58;16.00;99.90
12408;DHT22;6268;48.188;17.134;2023-04-24T14:30:27;16.20;99.90
12408;DHT22;6268;48.188;17.134;2023-04-24T14:32:55;16.20;99.90
12408;DHT22;6268;48.188;17.134;2023-04-24T14:35:24;16.20;99.90
12408;DHT22;6268;48.188;17.134;2023-04-24T14:37:58;16.20;99.90
12408;DHT22;6268;48.188;17.134;2023-04-24T14:40:27;16.20;99.90
12408;DHT22;6268;48.188;17.134;2023-04-24T14:43:16;16.20;99.90
12408;DHT22;6268;48.188;17.134;2023-04-24T14:45:45;16.00;99.90
12408;DHT22;6268;48.188;17.134;2023-04-24T14:48:13;15.90;99.90
12408;DHT22;6268;48.188;17.134;2023-04-24T14:50:43;15.90;99.90
12408;DHT22;6268;48.188;17.134;2023-04-24T14:53:14;15.80;99.90
12408;DHT22;6268;48.188;17.134;2023-04-24T14:55:43;15.90;99.90
12408;DHT22;6268;48.188;17.134;2023-04-24T14:58:12;16.00;99.90
12408;DHT22;6268;48.188;17.134;2023-04-24T15:00:41;15.90;99.90
12408;DHT22;6268;48.188;17.134;2023-04-24T15:03:09;15.90;99.90
12408;DHT22;6268;48.188;17.134;2023-04-24T15:05:38;17.60;99.90
12408;DHT22;6268;48.188;17.134;2023-04-24T15:08:07;17.30;99.90
12408;DHT22;6268;48.188;17.134;2023-04-24T15:10:38;16.60;99.90
12408;DHT22;6268;48.188;17.134;2023-04-24T15:13:07;16.20;99.90
12408;DHT22;6268;48.188;17.134;2023-04-24T15:15:36;15.90;99.90
12408;DHT22;6268;48.188;17.134;2023-04-24T15:18:05;15.70;99.90
12408;DHT22;6268;48.188;17.134;2023-04-24T15:20:38;15.60;99.90
12408;DHT22;6268;48.188;17.134;2023-04-24T15:23:08;15.70;99.90
12408;DHT22;6268;48.188;17.134;2023-04-24T15:25:39;15.50;99.90
12408;DHT22;6268;48.188;17.134;2023-04-24T15:28:08;15.50;99.90
12408;DHT22;6268;48.188;17.134;2023-04-24T15:30:37;15.40;99.90
12408;DHT22;6268;48.188;17.134;2023-04-24T15:33:06;15.40;99.90
12408;DHT22;6268;48.188;17.134;2023-04-24T15:35:35;15.40;99.90
12408;DHT22;6268;48.188;17.134;2023-04-24T15:38:03;15.40;99.90
12408;DHT22;6268;48.188;17.134;2023-04-24T15:40:32;15.40;99.90
12408;DHT22;6268;48.188;17.134;2023-04-24T15:43:03;15.40;99.90
12408;DHT22;6268;48.188;17.134;2023-04-24T15:45:32;15.30;99.90
12408;DHT22;6268;48.188;17.134;2023-04-24T15:48:02;15.30;99.90